Time;durP1;ratioP1;P1;durP2;ratioP2;P2;SDS_P1;SDS_P2;PMS_P1;PMS_P2;Temp;Humidity;BMP_temperature;BMP_pressure;BME280_temperature;BME280_humidity;BME280_pressure;Samples;Min_cycle;Max_cycle;Signal;HPM_P1;HPM_P2
2023/10/28 00:00:42;;;;;;;22.80;7.93;;;;;;;6.82;100.00;99503.16;5094002;28;20024;-85
2023/10/28 00:03:08;;;;;;;20.17;7.85;;;;;;;6.80;100.00;99511.25;5092533;28;20032;-86
2023/10/28 00:05:33;;;;;;;23.23;8.35;;;;;;;6.77;100.00;99505.41;5075524;28;20059;-86
2023/10/28 00:07:59;;;;;;;16.08;7.88;;;;;;;6.75;100.00;99513.50;5093897;28;20035;-85
2023/10/28 00:10:25;;;;;;;15.95;7.55;;;;;;;6.76;100.00;99509.03;5092316;28;20449;-85
2023/10/28 00:12:50;;;;;;;15.88;8.25;;;;;;;6.78;100.00;99507.09;5094036;28;20098;-85
2023/10/28 00:15:18;;;;;;;32.88;10.05;;;;;;;6.78;100.00;99504.47;5093383;28;20039;-86
2023/10/28 00:17:48;;;;;;;22.63;8.75;;;;;;;6.82;100.00;99511.94;5093778;28;20102;-84
2023/10/28 00:20:17;;;;;;;21.75;8.82;;;;;;;6.86;100.00;99510.66;5093462;28;20503;-86
2023/10/28 00:22:46;;;;;;;36.35;10.38;;;;;;;6.89;100.00;99517.47;5093793;28;20028;-84
2023/10/28 00:25:13;;;;;;;21.77;9.40;;;;;;;6.93;100.00;99515.38;5093477;28;20036;-85
2023/10/28 00:27:43;;;;;;;32.28;9.77;;;;;;;6.99;100.00;99528.81;5091680;28;20028;-85
2023/10/28 00:30:11;;;;;;;32.70;11.23;;;;;;;7.09;100.00;99523.47;5092599;28;20469;-86
2023/10/28 00:32:37;;;;;;;31.15;11.10;;;;;;;7.15;100.00;99525.53;5092531;28;20472;-84
2023/10/28 00:35:04;;;;;;;25.75;10.63;;;;;;;7.16;100.00;99519.25;5093530;28;20082;-84
2023/10/28 00:37:30;;;;;;;25.65;10.15;;;;;;;7.18;100.00;99527.88;5092810;28;20036;-84
2023/10/28 00:39:56;;;;;;;34.88;11.73;;;;;;;7.17;100.00;99522.72;5093352;28;20081;-84
2023/10/28 00:42:21;;;;;;;35.10;11.88;;;;;;;7.23;100.00;99530.88;5092674;28;20038;-84
2023/10/28 00:44:47;;;;;;;43.30;12.20;;;;;;;7.30;100.00;99527.66;5092040;28;20369;-85
2023/10/28 00:47:12;;;;;;;30.00;12.50;;;;;;;7.34;100.00;99532.47;5093041;28;20071;-86
2023/10/28 00:49:39;;;;;;;32.42;12.82;;;;;;;7.39;100.00;99530.22;5092540;28;20036;-85
2023/10/28 00:52:05;;;;;;;40.20;12.35;;;;;;;7.40;100.00;99529.25;5093104;28;20407;-86
2023/10/28 00:54:30;;;;;;;38.40;13.60;;;;;;;7.43;100.00;99524.63;5091315;28;20032;-86
2023/10/28 00:56:57;;;;;;;48.00;14.18;;;;;;;7.47;100.00;99526.00;5093203;28;20036;-85
2023/10/28 00:59:23;;;;;;;37.72;13.10;;;;;;;7.50;100.00;99521.22;5092805;28;20460;-85
2023/10/28 01:01:49;;;;;;;38.10;14.55;;;;;;;7.52;100.00;99519.25;5092007;28;20036;-85
2023/10/28 01:04:15;;;;;;;45.75;14.82;;;;;;;7.52;100.00;99519.25;5092988;28;20028;-85
2023/10/28 01:06:41;;;;;;;42.83;13.43;;;;;;;7.54;100.00;99508.53;5091585;28;20047;-85
2023/10/28 01:09:07;;;;;;;38.40;13.38;;;;;;;7.52;100.00;99507.84;5091732;28;20032;-84
2023/10/28 01:11:37;;;;;;;43.55;13.05;;;;;;;7.48;100.00;99511.78;5092639;28;20028;-85
2023/10/28 01:14:02;;;;;;;33.72;11.30;;;;;;;7.43;100.00;99512.22;5092153;28;20380;-84
2023/10/28 01:16:28;;;;;;;38.90;13.23;;;;;;;7.44;100.00;99510.44;5091100;28;20024;-86
2023/10/28 01:18:57;;;;;;;39.55;12.85;;;;;;;7.45;100.00;99501.50;5092709;28;20464;-85
2023/10/28 01:21:25;;;;;;;43.90;12.77;;;;;;;7.47;100.00;99502.19;5092809;28;20146;-85
2023/10/28 01:23:51;;;;;;;34.22;11.95;;;;;;;7.49;100.00;99498.38;5091638;28;20067;-84
2023/10/28 01:26:17;;;;;;;37.40;12.02;;;;;;;7.55;100.00;99497.81;5092941;28;20038;-85
2023/10/28 01:28:42;;;;;;;37.63;12.60;;;;;;;7.57;100.00;99501.13;5092528;28;20520;-86
2023/10/28 01:31:08;;;;;;;43.97;13.48;;;;;;;7.61;100.00;99501.63;5092827;28;20480;-85
2023/10/28 01:33:33;;;;;;;35.50;12.38;;;;;;;7.65;100.00;99505.66;5092182;28;20029;-84
2023/10/28 01:35:59;;;;;;;36.95;12.38;;;;;;;7.68;100.00;99513.28;5092647;28;20037;-84
2023/10/28 01:38:25;;;;;;;38.90;11.65;;;;;;;7.71;100.00;99512.16;5094141;28;20458;-86
2023/10/28 01:40:56;;;;;;;37.15;12.73;;;;;;;7.72;100.00;99519.94;5096691;28;20032;-84
2023/10/28 01:43:21;;;;;;;42.45;12.18;;;;;;;7.76;100.00;99520.44;5096631;28;20036;-82
2023/10/28 01:45:46;;;;;;;36.13;12.52;;;;;;;7.80;100.00;99513.88;5096310;28;20059;-83
2023/10/28 01:48:13;;;;;;;42.70;13.00;;;;;;;7.85;100.00;99518.72;5096148;28;20028;-84
2023/10/28 01:50:39;;;;;;;46.60;13.55;;;;;;;7.90;100.00;99517.28;5094833;28;20064;-84
2023/10/28 01:53:04;;;;;;;41.15;11.55;;;;;;;7.93;100.00;99511.66;5096361;28;20075;-83
2023/10/28 01:55:29;;;;;;;40.45;12.50;;;;;;;7.98;100.00;99510.38;5095714;28;20046;-83
2023/10/28 01:57:56;;;;;;;39.13;11.70;;;;;;;8.00;100.00;99506.59;5096511;28;20524;-85
2023/10/28 02:00:22;;;;;;;30.85;11.55;;;;;;;8.00;100.00;99509.25;5096454;28;20055;-84
2023/10/28 02:02:48;;;;;;;37.67;11.95;;;;;;;8.03;100.00;99505.44;5095975;28;20094;-82
2023/10/28 02:05:15;;;;;;;31.75;12.00;;;;;;;8.03;100.00;99500.97;5096225;28;20410;-84
2023/10/28 02:07:40;;;;;;;33.30;12.20;;;;;;;8.06;100.00;99499.81;5095633;28;20036;-83
2023/10/28 02:10:06;;;;;;;36.95;12.10;;;;;;;8.06;100.00;99503.31;5094881;28;20479;-85
2023/10/28 02:12:34;;;;;;;33.53;11.70;;;;;;;8.04;100.00;99501.81;5094679;28;20035;-83
2023/10/28 02:15:04;;;;;;;30.05;11.85;;;;;;;8.03;100.00;99498.34;5097140;28;20040;-83
2023/10/28 02:17:29;;;;;;;45.78;11.77;;;;;;;8.06;100.00;99497.16;5095190;28;20054;-82
2023/10/28 02:19:56;;;;;;;35.28;11.75;;;;;;;8.10;100.00;99502.00;5096965;28;20461;-82
2023/10/28 02:22:22;;;;;;;38.35;12.20;;;;;;;8.16;100.00;99495.25;5096483;28;20032;-84
2023/10/28 02:24:47;;;;;;;42.58;12.88;;;;;;;8.21;100.00;99492.97;5098476;28;20380;-83
2023/10/28 02:27:12;;;;;;;42.58;12.82;;;;;;;8.25;100.00;99482.88;5104478;28;20114;-84
2023/10/28 02:29:38;;;;;;;40.22;12.40;;;;;;;8.27;100.00;99491.50;5101946;28;20059;-83
2023/10/28 02:32:05;;;;;;;36.10;11.32;;;;;;;8.27;100.00;99492.34;5101254;28;20467;-84
2023/10/28 02:34:31;;;;;;;29.25;11.65;;;;;;;8.26;100.00;99493.31;5096129;28;20038;-84
2023/10/28 02:36:56;;;;;;;41.55;13.40;;;;;;;8.28;100.00;99487.88;5096220;28;20111;-83
2023/10/28 02:39:22;;;;;;;39.53;12.77;;;;;;;8.24;100.00;99483.88;5095824;28;20039;-83
2023/10/28 02:41:47;;;;;;;38.65;13.52;;;;;;;8.21;100.00;99485.03;5096119;28;20391;-83
2023/10/28 02:44:12;;;;;;;34.25;13.70;;;;;;;8.19;100.00;99479.03;5095152;28;20032;-83
2023/10/28 02:46:38;;;;;;;48.60;14.60;;;;;;;8.16;100.00;99476.69;5095783;28;20081;-83
2023/10/28 02:49:04;;;;;;;45.13;13.95;;;;;;;8.15;100.00;99477.72;5095175;28;20472;-82
2023/10/28 02:51:29;;;;;;;41.22;14.52;;;;;;;8.12;100.00;99478.00;5095606;28;20051;-81
2023/10/28 02:53:55;;;;;;;49.60;16.40;;;;;;;8.12;100.00;99475.34;5093819;28;20136;-81
2023/10/28 02:56:21;;;;;;;46.10;15.68;;;;;;;8.15;100.00;99472.41;5094275;28;20043;-84
2023/10/28 02:58:46;;;;;;;48.33;16.13;;;;;;;8.23;100.00;99487.53;5093410;28;20066;-83
2023/10/28 03:01:13;;;;;;;53.05;17.27;;;;;;;8.28;100.00;99478.13;5094795;28;20032;-83
2023/10/28 03:03:42;;;;;;;45.05;16.20;;;;;;;8.27;100.00;99479.09;5093127;28;20478;-84
2023/10/28 03:06:08;;;;;;;44.13;15.32;;;;;;;8.30;100.00;99492.03;5094102;28;20053;-82
2023/10/28 03:08:34;;;;;;;55.92;15.77;;;;;;;8.34;100.00;99495.19;5094936;28;20051;-83
2023/10/28 03:11:00;;;;;;;41.42;15.15;;;;;;;8.40;100.00;99497.19;5094049;28;20036;-82
2023/10/28 03:13:25;;;;;;;47.25;16.15;;;;;;;8.46;100.00;99501.06;5093400;28;20030;-82
2023/10/28 03:15:50;;;;;;;50.15;17.60;;;;;;;8.50;100.00;99499.78;5076300;28;20097;-82
2023/10/28 03:18:16;;;;;;;40.30;16.88;;;;;;;8.51;100.00;99500.59;5094854;28;20032;-81
2023/10/28 03:20:42;;;;;;;34.28;14.75;;;;;;;8.51;100.00;99492.66;5094171;28;20028;-82
2023/10/28 03:23:07;;;;;;;34.05;14.60;;;;;;;8.47;100.00;99484.19;5094155;28;20028;-81
2023/10/28 03:25:33;;;;;;;35.90;14.75;;;;;;;8.43;100.00;99491.63;5094567;28;20376;-81
2023/10/28 03:28:02;;;;;;;39.33;14.45;;;;;;;8.43;100.00;99493.41;5093914;28;20117;-82
2023/10/28 03:30:27;;;;;;;40.78;15.30;;;;;;;8.42;100.00;99495.25;5092957;28;20491;-83
2023/10/28 03:32:53;;;;;;;37.97;14.60;;;;;;;8.39;100.00;99489.41;5093740;28;20056;-83
2023/10/28 03:35:18;;;;;;;30.70;13.77;;;;;;;8.37;100.00;99483.44;5093865;28;20443;-83
2023/10/28 03:37:44;;;;;;;33.33;13.40;;;;;;;8.37;100.00;99488.75;5093724;28;20024;-83
2023/10/28 03:40:10;;;;;;;34.40;13.95;;;;;;;8.39;100.00;99484.97;5094116;28;20036;-82
2023/10/28 03:42:36;;;;;;;27.88;13.52;;;;;;;8.36;100.00;99490.56;5093740;28;20051;-83
2023/10/28 03:45:11;;;;;;;32.28;13.88;;;;;;;8.34;100.00;99481.94;5092425;28;20480;-83
2023/10/28 03:47:38;;;;;;;33.15;13.15;;;;;;;8.36;100.00;99487.94;5093941;28;20037;-81
2023/10/28 03:50:04;;;;;;;27.75;11.82;;;;;;;8.36;100.00;99482.63;5075463;28;20036;-82
2023/10/28 03:52:30;;;;;;;33.22;12.18;;;;;;;8.36;100.00;99487.94;5092005;28;20247;-81
2023/10/28 03:54:55;;;;;;;28.88;11.30;;;;;;;8.38;100.00;99482.47;5093042;28;20067;-83
2023/10/28 03:57:21;;;;;;;25.05;11.23;;;;;;;8.40;100.00;99477.81;5093712;28;20043;-84
2023/10/28 03:59:48;;;;;;;24.65;11.23;;;;;;;8.39;100.00;99474.34;5093298;28;20049;-83
2023/10/28 04:02:13;;;;;;;24.77;11.70;;;;;;;8.41;100.00;99468.91;5093165;28;20040;-81
2023/10/28 04:04:39;;;;;;;21.63;11.32;;;;;;;8.43;100.00;99466.91;5093694;28;20169;-83
2023/10/28 04:07:04;;;;;;;24.55;11.40;;;;;;;8.41;100.00;99464.41;5093288;28;20121;-82
2023/10/28 04:09:29;;;;;;;26.80;10.85;;;;;;;8.44;100.00;99472.06;5093355;28;20036;-82
2023/10/28 04:11:55;;;;;;;21.63;10.35;;;;;;;8.43;100.00;99461.59;5091626;28;20038;-82
2023/10/28 04:14:20;;;;;;;24.00;10.35;;;;;;;8.45;100.00;99467.63;5093802;28;20338;-81
2023/10/28 04:16:46;;;;;;;20.52;9.00;;;;;;;8.45;100.00;99473.75;5092798;28;20557;-85
2023/10/28 04:19:11;;;;;;;15.93;8.02;;;;;;;8.48;100.00;99467.31;5092129;28;20093;-82
2023/10/28 04:21:37;;;;;;;21.58;8.13;;;;;;;8.46;100.00;99461.31;5093346;28;20468;-83
2023/10/28 04:24:03;;;;;;;24.08;7.80;;;;;;;8.50;100.00;99462.66;5092671;28;20069;-84
2023/10/28 04:26:30;;;;;;;16.85;7.70;;;;;;;8.51;100.00;99452.88;5092288;28;20047;-81
2023/10/28 04:28:59;;;;;;;15.93;7.10;;;;;;;8.53;100.00;99459.69;5091755;28;20032;-83
2023/10/28 04:31:26;;;;;;;18.15;6.93;;;;;;;8.52;100.00;99458.03;5093265;28;20062;-81
2023/10/28 04:33:52;;;;;;;17.00;7.10;;;;;;;8.53;100.00;99462.34;5092788;28;20040;-83
2023/10/28 04:36:17;;;;;;;15.15;5.95;;;;;;;8.53;100.00;99464.19;5093144;28;20028;-82
2023/10/28 04:38:43;;;;;;;15.73;6.55;;;;;;;8.53;100.00;99457.03;5093382;28;20353;-82
2023/10/28 04:41:08;;;;;;;12.43;6.47;;;;;;;8.53;100.00;99448.28;5091275;28;20036;-83
2023/10/28 04:43:34;;;;;;;11.18;6.18;;;;;;;8.54;100.00;99449.91;5093089;28;20056;-84
2023/10/28 04:46:00;;;;;;;13.02;5.47;;;;;;;8.54;100.00;99444.59;5092664;28;20115;-84
2023/10/28 04:48:28;;;;;;;13.35;6.60;;;;;;;8.56;100.00;99453.25;5092876;28;20052;-81
2023/10/28 04:50:54;;;;;;;14.80;6.65;;;;;;;8.52;100.00;99444.78;5091206;28;20024;-83
2023/10/28 04:53:19;;;;;;;18.88;7.13;;;;;;;8.56;100.00;99445.31;5091565;28;20063;-83
2023/10/28 04:55:45;;;;;;;16.25;6.65;;;;;;;8.56;100.00;99443.47;5091852;28;20085;-86
2023/10/28 04:58:11;;;;;;;18.38;7.20;;;;;;;8.56;100.00;99435.50;5092128;28;20527;-84
2023/10/28 05:00:37;;;;;;;11.65;6.88;;;;;;;8.58;100.00;99444.16;5092715;28;20032;-81
2023/10/28 05:03:03;;;;;;;18.67;7.43;;;;;;;8.57;100.00;99444.28;5092394;28;20110;-84
2023/10/28 05:05:29;;;;;;;19.88;7.53;;;;;;;8.58;100.00;99441.50;5092871;28;20124;-83
2023/10/28 05:07:55;;;;;;;25.65;7.75;;;;;;;8.58;100.00;99438.00;5092163;28;20032;-83
2023/10/28 05:10:21;;;;;;;16.02;8.18;;;;;;;8.59;100.00;99443.16;5091405;28;20078;-82
2023/10/28 05:12:46;;;;;;;17.40;8.57;;;;;;;8.61;100.00;99435.03;5093198;28;20082;-83
2023/10/28 05:15:12;;;;;;;19.02;8.70;;;;;;;8.59;100.00;99442.31;5096404;28;20413;-82
2023/10/28 05:17:38;;;;;;;18.88;9.18;;;;;;;8.61;100.00;99435.03;5096484;28;20051;-82
2023/10/28 05:20:06;;;;;;;18.60;9.07;;;;;;;8.61;100.00;99437.69;5094753;28;20047;-81
2023/10/28 05:22:41;;;;;;;17.20;8.90;;;;;;;8.59;100.00;99437.84;5096753;28;20127;-81
2023/10/28 05:25:07;;;;;;;18.17;9.05;;;;;;;8.60;100.00;99438.69;5095992;28;20537;-82
2023/10/28 05:27:33;;;;;;;19.70;8.90;;;;;;;8.60;100.00;99441.34;5095279;28;20380;-82
2023/10/28 05:29:59;;;;;;;27.58;10.30;;;;;;;8.60;100.00;99439.50;5096057;28;20032;-83
2023/10/28 05:32:25;;;;;;;21.13;9.32;;;;;;;8.59;100.00;99432.53;5096433;28;20039;-83
2023/10/28 05:34:51;;;;;;;28.67;10.02;;;;;;;8.59;100.00;99429.06;5096639;28;20043;-83
2023/10/28 05:37:16;;;;;;;17.85;8.90;;;;;;;8.60;100.00;99425.44;5096046;28;20489;-83
2023/10/28 05:39:42;;;;;;;21.13;9.23;;;;;;;8.60;100.00;99433.38;5096510;28;20035;-84
2023/10/28 05:42:07;;;;;;;20.33;9.07;;;;;;;8.61;100.00;99429.72;5095690;28;20085;-85
2023/10/28 05:44:33;;;;;;;22.48;9.13;;;;;;;8.62;100.00;99434.03;5096552;28;20081;-84
2023/10/28 05:46:59;;;;;;;19.42;9.65;;;;;;;8.62;100.00;99432.22;5094711;28;20540;-84
2023/10/28 05:49:25;;;;;;;25.00;9.80;;;;;;;8.63;100.00;99430.41;5096225;28;20099;-83
2023/10/28 05:51:51;;;;;;;18.42;9.68;;;;;;;8.62;100.00;99426.91;5095863;28;20087;-83
2023/10/28 05:54:16;;;;;;;19.40;9.45;;;;;;;8.63;100.00;99430.41;5095740;28;20064;-86
2023/10/28 05:56:41;;;;;;;19.65;9.38;;;;;;;8.63;100.00;99433.88;5096335;28;20052;-85
2023/10/28 05:59:08;;;;;;;21.13;9.52;;;;;;;8.64;100.00;99432.06;5095731;28;20024;-83
2023/10/28 06:01:34;;;;;;;25.38;9.55;;;;;;;8.64;100.00;99434.72;5096204;28;20070;-80
2023/10/28 06:04:00;;;;;;;22.55;9.05;;;;;;;8.67;100.00;99437.03;5096114;28;20107;-83
2023/10/28 06:06:26;;;;;;;18.77;9.45;;;;;;;8.69;100.00;99442.19;5096407;28;20029;-83
2023/10/28 06:08:51;;;;;;;19.70;10.13;;;;;;;8.68;100.00;99435.22;5096322;28;20043;-82
2023/10/28 06:11:17;;;;;;;23.30;9.32;;;;;;;8.68;100.00;99435.22;5093743;28;20404;-85
2023/10/28 06:13:42;;;;;;;22.27;9.30;;;;;;;8.69;100.00;99435.06;5096144;28;20055;-83
2023/10/28 06:16:08;;;;;;;22.55;9.20;;;;;;;8.70;100.00;99433.25;5095421;28;20032;-83
2023/10/28 06:18:33;;;;;;;26.00;10.35;;;;;;;8.71;100.00;99445.50;5095642;28;20031;-83
2023/10/28 06:21:00;;;;;;;19.48;9.57;;;;;;;8.74;100.00;99438.06;5096184;28;20498;-83
2023/10/28 06:23:25;;;;;;;22.15;10.07;;;;;;;8.76;100.00;99444.03;5094909;28;20028;-82
2023/10/28 06:25:51;;;;;;;28.63;10.07;;;;;;;8.75;100.00;99434.41;5095598;28;20055;-82
2023/10/28 06:28:18;;;;;;;23.50;9.90;;;;;;;8.74;100.00;99435.41;5095265;28;20400;-83
2023/10/28 06:30:50;;;;;;;28.30;10.68;;;;;;;8.77;100.00;99439.56;5096531;28;20519;-84
2023/10/28 06:33:16;;;;;;;23.05;10.38;;;;;;;8.77;100.00;99437.72;5095485;28;20089;-84
2023/10/28 06:35:42;;;;;;;20.33;10.05;;;;;;;8.75;100.00;99437.06;5095802;28;20036;-83
2023/10/28 06:38:08;;;;;;;28.85;10.32;;;;;;;8.76;100.00;99437.91;5094921;28;20032;-84
2023/10/28 06:40:36;;;;;;;18.75;10.27;;;;;;;8.80;100.00;99436.59;5095119;28;20032;-85
2023/10/28 06:43:01;;;;;;;16.08;8.90;;;;;;;8.78;100.00;99447.34;5095276;28;20055;-85
2023/10/28 06:45:28;;;;;;;21.80;9.25;;;;;;;8.79;100.00;99441.06;5093548;28;20123;-84
2023/10/28 06:47:53;;;;;;;24.38;9.73;;;;;;;8.80;100.00;99440.06;5094816;28;20032;-84
2023/10/28 06:50:21;;;;;;;23.17;9.23;;;;;;;8.83;100.00;99444.22;5094561;28;20035;-86
2023/10/28 06:52:48;;;;;;;20.20;10.07;;;;;;;8.86;100.00;99443.06;5093946;28;20056;-85
2023/10/28 06:55:14;;;;;;;29.58;9.63;;;;;;;8.87;100.00;99442.91;5094932;28;20032;-85
2023/10/28 06:57:41;;;;;;;13.65;8.07;;;;;;;8.86;100.00;99438.59;5093991;28;20056;-85
2023/10/28 07:00:12;;;;;;;18.00;9.20;;;;;;;8.87;100.00;99439.41;5094860;28;20028;-86
2023/10/28 07:02:37;;;;;;;19.52;10.20;;;;;;;8.89;100.00;99442.75;5095123;28;20036;-85
2023/10/28 07:05:03;;;;;;;22.38;9.02;;;;;;;8.91;100.00;99441.59;5094892;28;20040;-83
2023/10/28 07:07:29;;;;;;;23.42;8.82;;;;;;;8.92;100.00;99437.94;5094967;28;20060;-83
2023/10/28 07:09:54;;;;;;;25.45;8.55;;;;;;;8.95;100.00;99452.69;5094988;28;20028;-82
2023/10/28 07:12:20;;;;;;;23.70;8.98;;;;;;;8.95;100.00;99445.56;5094198;28;20411;-83
2023/10/28 07:14:45;;;;;;;25.92;8.07;;;;;;;8.98;100.00;99447.88;5093752;28;20054;-82
2023/10/28 07:17:11;;;;;;;27.80;9.00;;;;;;;8.99;100.00;99444.25;5093038;28;20028;-85
2023/10/28 07:19:37;;;;;;;20.90;8.55;;;;;;;9.04;100.00;99446.41;5093494;28;20040;-82
2023/10/28 07:22:02;;;;;;;20.98;7.70;;;;;;;9.05;100.00;99449.91;5093241;28;20105;-81
2023/10/28 07:24:28;;;;;;;18.75;8.15;;;;;;;9.05;100.00;99461.34;5092917;28;20043;-81
2023/10/28 07:26:53;;;;;;;18.38;7.65;;;;;;;9.09;100.00;99464.50;5095392;28;20494;-82
2023/10/28 07:29:18;;;;;;;18.75;7.80;;;;;;;9.14;100.00;99459.53;5095108;28;20025;-81
2023/10/28 07:31:44;;;;;;;17.98;7.90;;;;;;;9.17;100.00;99468.00;5095873;28;20028;-82
2023/10/28 07:34:09;;;;;;;21.40;8.90;;;;;;;9.19;100.00;99465.19;5093438;28;20024;-82
2023/10/28 07:36:34;;;;;;;19.15;7.93;;;;;;;9.21;100.00;99468.53;5092921;28;20028;-82
2023/10/28 07:39:03;;;;;;;18.65;7.57;;;;;;;9.25;100.00;99469.00;5094348;28;20058;-81
2023/10/28 07:41:29;;;;;;;20.90;7.22;;;;;;;9.25;100.00;99467.19;5093484;28;20369;-83
2023/10/28 07:43:56;;;;;;;17.35;7.30;;;;;;;9.24;100.00;99470.84;5093910;28;20051;-82
2023/10/28 07:46:21;;;;;;;19.23;6.88;;;;;;;9.26;100.00;99473.34;5093520;28;20023;-80
2023/10/28 07:48:46;;;;;;;23.40;7.15;;;;;;;9.27;100.00;99472.31;5093927;28;20069;-80
2023/10/28 07:51:16;;;;;;;15.73;5.95;;;;;;;9.28;100.00;99472.16;5092533;28;20076;-81
2023/10/28 07:53:41;;;;;;;19.40;7.47;;;;;;;9.30;100.00;99477.28;5094131;28;20048;-81
2023/10/28 07:56:07;;;;;;;16.00;6.18;;;;;;;9.31;100.00;99471.81;5093995;28;20052;-82
2023/10/28 07:58:32;;;;;;;17.95;5.97;;;;;;;9.33;100.00;99476.97;5091934;28;20029;-78
2023/10/28 08:00:57;;;;;;;22.40;6.13;;;;;;;9.34;100.00;99471.53;5093298;28;20039;-80
2023/10/28 08:03:23;;;;;;;19.10;6.30;;;;;;;9.35;100.00;99473.16;5092052;28;20107;-80
2023/10/28 08:05:48;;;;;;;24.45;6.20;;;;;;;9.38;100.00;99477.31;5093849;28;20531;-79
2023/10/28 08:08:14;;;;;;;16.45;6.10;;;;;;;9.40;100.00;99477.97;5093764;28;20077;-81
2023/10/28 08:10:40;;;;;;;20.20;6.40;;;;;;;9.43;100.00;99484.78;5083864;28;20048;-81
2023/10/28 08:13:06;;;;;;;24.23;6.43;;;;;;;9.43;100.00;99477.63;5070409;28;20033;-82
2023/10/28 08:15:31;;;;;;;17.45;5.95;;;;;;;9.48;100.00;99477.16;5070000;28;20073;-80
2023/10/28 08:17:57;;;;;;;22.30;5.65;;;;;;;9.50;100.00;99483.13;5070701;28;20127;-83
2023/10/28 08:20:23;;;;;;;17.45;6.50;;;;;;;9.52;100.00;99481.13;5085659;28;20123;-80
2023/10/28 08:22:48;;;;;;;21.98;5.78;;;;;;;9.50;100.00;99483.97;5051764;28;20066;-80
2023/10/28 08:25:16;;;;;;;16.90;5.45;;;;;;;9.47;100.00;99478.97;5052227;28;20036;-82
2023/10/28 08:27:44;;;;;;;16.90;5.70;;;;;;;9.50;100.00;99481.31;5069897;28;20032;-84
2023/10/28 08:30:14;;;;;;;19.30;6.03;;;;;;;9.51;100.00;99487.47;5070516;28;20036;-82
2023/10/28 08:32:39;;;;;;;16.70;5.47;;;;;;;9.51;100.00;99495.44;5070095;28;20089;-81
2023/10/28 08:35:05;;;;;;;18.80;5.60;;;;;;;9.53;100.00;99490.78;5069740;28;20032;-84
2023/10/28 08:37:31;;;;;;;18.35;5.38;;;;;;;9.55;100.00;99499.38;5069527;28;20036;-82
2023/10/28 08:39:57;;;;;;;20.27;5.63;;;;;;;9.58;100.00;99491.09;5070091;28;20033;-79
2023/10/28 08:42:23;;;;;;;21.48;5.38;;;;;;;9.60;100.00;99494.44;5068491;28;20067;-81
2023/10/28 08:44:51;;;;;;;17.35;5.35;;;;;;;9.64;100.00;99493.13;5069754;28;20489;-80
2023/10/28 08:47:21;;;;;;;17.65;5.20;;;;;;;9.65;100.00;99496.59;5069698;28;20040;-84
2023/10/28 08:49:48;;;;;;;17.17;4.85;;;;;;;9.66;100.00;99498.25;5069622;28;20075;-80
2023/10/28 08:52:18;;;;;;;14.65;4.20;;;;;;;9.67;100.00;99502.56;5069510;28;20131;-80
2023/10/28 08:54:44;;;;;;;13.05;4.70;;;;;;;9.67;100.00;99505.22;5070111;28;20037;-81
2023/10/28 08:57:11;;;;;;;17.63;4.72;;;;;;;9.67;100.00;99507.88;5070484;28;20055;-80
2023/10/28 08:59:37;;;;;;;17.60;4.80;;;;;;;9.70;100.00;99512.84;5069810;28;20063;-81
2023/10/28 09:02:07;;;;;;;12.80;4.55;;;;;;;9.69;100.00;99514.69;5068714;28;20071;-77
2023/10/28 09:04:33;;;;;;;14.13;4.43;;;;;;;9.69;100.00;99520.00;5084328;28;20465;-82
2023/10/28 09:07:00;;;;;;;23.00;4.78;;;;;;;9.70;100.00;99520.81;5084083;28;20092;-80
2023/10/28 09:09:27;;;;;;;13.88;4.05;;;;;;;9.72;100.00;99518.84;5091856;28;20036;-86
2023/10/28 09:11:57;;;;;;;13.85;4.40;;;;;;;9.76;100.00;99517.50;5091861;28;20039;-80
2023/10/28 09:14:25;;;;;;;12.90;3.78;;;;;;;9.75;100.00;99518.50;5093046;28;20523;-84
2023/10/28 09:16:51;;;;;;;12.35;3.50;;;;;;;9.79;100.00;99524.31;5092575;28;20043;-84
2023/10/28 09:19:20;;;;;;;18.15;4.75;;;;;;;9.81;100.00;99525.81;5092846;28;20028;-78
2023/10/28 09:21:49;;;;;;;15.32;4.20;;;;;;;9.81;100.00;99519.69;5090254;28;20301;-80
2023/10/28 09:24:16;;;;;;;12.95;4.00;;;;;;;9.86;100.00;99528.78;5092056;28;20028;-79
2023/10/28 09:26:41;;;;;;;10.50;3.40;;;;;;;9.89;100.00;99527.63;5090072;28;20162;-80
2023/10/28 09:29:07;;;;;;;11.00;3.63;;;;;;;9.95;100.00;99528.78;5091874;28;20122;-81
2023/10/28 09:31:33;;;;;;;11.93;3.20;;;;;;;10.00;100.00;99529.09;5091254;28;20086;-79
2023/10/28 09:33:59;;;;;;;12.20;3.22;;;;;;;10.05;100.00;99524.97;5092154;28;20469;-77
2023/10/28 09:36:25;;;;;;;11.05;3.47;;;;;;;10.05;100.00;99535.59;5091647;28;20392;-79
2023/10/28 09:38:53;;;;;;;11.90;3.05;;;;;;;10.06;100.00;99544.38;5091631;28;20036;-83
2023/10/28 09:41:19;;;;;;;16.70;3.85;;;;;;;10.05;100.00;99540.09;5090557;28;20040;-78
2023/10/28 09:43:44;;;;;;;14.57;4.05;;;;;;;10.04;100.00;99536.56;5089954;28;20069;-83
2023/10/28 09:46:10;;;;;;;15.73;3.55;;;;;;;10.06;100.00;99542.56;5090615;28;20035;-82
2023/10/28 09:48:45;;;;;;;15.73;3.38;;;;;;;10.07;100.00;99538.91;5091292;28;20036;-79
2023/10/28 09:51:16;;;;;;;9.90;3.13;;;;;;;10.12;100.00;99540.22;5091984;28;20047;-79
2023/10/28 09:53:43;;;;;;;;;;;;;;;10.16;100.00;99537.06;5092522;28;20047;-82
2023/10/28 09:56:12;;;;;;;9.63;2.88;;;;;;;10.14;100.00;99541.72;5092371;28;19971;-79
2023/10/28 09:58:46;;;;;;;14.60;3.25;;;;;;;10.16;100.00;99530.94;5091869;28;20089;-79
2023/10/28 10:01:18;;;;;;;11.57;2.92;;;;;;;10.18;100.00;99539.56;5095342;28;20031;-80
2023/10/28 10:04:21;;;;;;;9.43;2.60;;;;;;;10.18;100.00;99551.03;5094083;28;20032;-83
2023/10/28 10:06:47;;;;;;;10.65;2.85;;;;;;;10.18;100.00;99543.06;5095433;28;20158;-83
2023/10/28 10:09:18;;;;;;;14.88;2.75;;;;;;;10.27;100.00;99554.50;5095221;28;20028;-82
2023/10/28 10:11:43;;;;;;;7.65;2.58;;;;;;;10.29;100.00;99547.19;5094656;28;20371;-81
2023/10/28 10:14:10;;;;;;;12.25;2.78;;;;;;;10.35;100.00;99553.69;5095001;28;20119;-81
2023/10/28 10:16:59;;;;;;;13.43;2.67;;;;;;;10.37;100.00;99554.34;5094522;28;20052;-79
2023/10/28 10:19:35;;;;;;;8.10;2.10;;;;;;;10.41;100.00;99558.34;5094823;28;20024;-78
2023/10/28 10:22:06;;;;;;;9.20;2.35;;;;;;;10.44;100.00;99559.84;5095066;28;20113;-79
2023/10/28 10:24:32;;;;;;;9.65;2.35;;;;;;;10.45;100.00;99564.13;5094620;28;20035;-83
2023/10/28 10:27:02;;;;;;;8.93;2.35;;;;;;;10.56;100.00;99564.59;5093971;28;20036;-80
2023/10/28 10:29:40;;;;;;;5.80;1.83;;;;;;;10.82;100.00;99562.72;5093832;28;20059;-80
2023/10/28 10:32:15;;;;;;;7.43;2.10;;;;;;;11.08;100.00;99560.59;5095058;28;20035;-81
2023/10/28 10:34:41;;;;;;;7.57;2.17;;;;;;;11.35;100.00;99562.97;5094582;28;20483;-82
2023/10/28 10:37:09;;;;;;;5.95;2.17;;;;;;;11.50;100.00;99560.41;5095352;28;20204;-81
2023/10/28 10:39:48;;;;;;;11.05;2.38;;;;;;;11.75;100.00;99555.72;5095288;28;20024;-82
2023/10/28 10:42:13;;;;;;;7.38;2.00;;;;;;;11.74;100.00;99554.06;5094569;28;20035;-80
2023/10/28 10:44:40;;;;;;;8.45;2.25;;;;;;;11.76;100.00;99560.03;5076276;28;20032;-79
2023/10/28 10:47:12;;;;;;;10.93;2.10;;;;;;;11.76;100.00;99549.38;5094687;28;20089;-79
2023/10/28 10:49:38;;;;;;;9.00;2.08;;;;;;;11.72;100.00;99543.59;5094127;28;20032;-82
2023/10/28 10:52:08;;;;;;;7.43;2.38;;;;;;;11.74;100.00;99546.06;5093883;28;20054;-83
2023/10/28 10:54:38;;;;;;;7.80;2.03;;;;;;;11.76;100.00;99552.88;5094650;28;20040;-81
2023/10/28 10:57:04;;;;;;;13.57;3.20;;;;;;;11.73;100.00;99541.75;5094404;28;20020;-79
2023/10/28 10:59:32;;;;;;;7.78;1.95;;;;;;;11.67;100.00;99540.59;5094565;28;20032;-82
2023/10/28 11:02:00;;;;;;;10.27;2.17;;;;;;;11.71;100.00;99539.25;5094112;28;20476;-81
2023/10/28 11:04:26;;;;;;;9.77;2.10;;;;;;;11.57;100.00;99546.19;5094234;28;20028;-81
2023/10/28 11:06:52;;;;;;;7.70;2.70;;;;;;;11.60;100.00;99537.84;5093538;28;20141;-83
2023/10/28 11:09:17;;;;;;;10.32;2.47;;;;;;;11.50;100.00;99534.56;5093917;28;20028;-81
2023/10/28 11:11:43;;;;;;;6.50;1.83;;;;;;;11.53;100.00;99544.06;5093650;28;20384;-83
2023/10/28 11:14:09;;;;;;;9.70;3.10;;;;;;;11.55;100.00;99536.72;5094409;28;20060;-81
2023/10/28 11:16:34;;;;;;;13.98;2.20;;;;;;;11.65;100.00;99543.44;5093300;28;20074;-84
2023/10/28 11:19:04;;;;;;;8.93;1.90;;;;;;;11.91;100.00;99538.75;5092412;28;20036;-82